Time;durP1;ratioP1;P1;durP2;ratioP2;P2;SDS_P1;SDS_P2;PMS_P1;PMS_P2;Temp;Humidity;BMP_temperature;BMP_pressure;BME280_temperature;BME280_humidity;BME280_pressure;Samples;Min_cycle;Max_cycle;Signal;HPM_P1;HPM_P2
2021/10/05 00:00:16;;;;;;;6.87;2.30;;;;;;;;;;696332;28;1008;-66
2021/10/05 00:00:36;;;;;;;7.38;2.22;;;;;;;;;;696508;28;902;-66
2021/10/05 00:00:57;;;;;;;5.75;2.20;;;;;;;;;;696382;28;867;-67
2021/10/05 00:01:17;;;;;;;6.83;2.33;;;;;;;;;;693937;28;1425;-66
2021/10/05 00:01:42;;;;;;;7.13;2.40;;;;;;;;;;693689;28;1046;-66
2021/10/05 00:02:03;;;;;;;6.78;2.42;;;;;;;;;;693689;28;897;-66
2021/10/05 00:02:23;;;;;;;7.13;2.35;;;;;;;;;;693689;28;837;-67
2021/10/05 00:02:44;;;;;;;5.97;2.13;;;;;;;;;;693369;28;824;-67
2021/10/05 00:03:05;;;;;;;6.17;2.20;;;;;;;;;;693588;28;1433;-67
2021/10/05 00:03:25;;;;;;;6.85;2.30;;;;;;;;;;693363;28;1333;-67
2021/10/05 00:03:45;;;;;;;5.07;2.30;;;;;;;;;;693416;28;979;-66
2021/10/05 00:04:05;;;;;;;5.30;2.00;;;;;;;;;;693472;28;777;-66
2021/10/05 00:04:26;;;;;;;6.07;2.17;;;;;;;;;;693427;28;1191;-66
2021/10/05 00:04:48;;;;;;;6.77;2.47;;;;;;;;;;694541;28;1408;-67
2021/10/05 00:05:09;;;;;;;6.88;2.67;;;;;;;;;;696228;28;1236;-67
2021/10/05 00:05:29;;;;;;;7.07;2.60;;;;;;;;;;696272;28;947;-67
2021/10/05 00:05:49;;;;;;;6.90;2.50;;;;;;;;;;696472;28;804;-66
2021/10/05 00:06:12;;;;;;;6.37;2.47;;;;;;;;;;696337;28;974;-67
2021/10/05 00:06:35;;;;;;;5.97;2.40;;;;;;;;;;696244;28;1914;-67
2021/10/05 00:06:55;;;;;;;5.57;2.00;;;;;;;;;;696460;28;915;-67
2021/10/05 00:07:15;;;;;;;6.70;2.10;;;;;;;;;;696506;28;1012;-66
2021/10/05 00:07:38;;;;;;;6.00;2.20;;;;;;;;;;696262;28;923;-67
2021/10/05 00:07:58;;;;;;;5.82;2.70;;;;;;;;;;696430;28;871;-66
2021/10/05 00:08:18;;;;;;;5.67;2.20;;;;;;;;;;696449;28;939;-66
2021/10/05 00:08:38;;;;;;;4.60;1.83;;;;;;;;;;696371;28;877;-66
2021/10/05 00:09:00;;;;;;;5.40;1.90;;;;;;;;;;696359;28;1420;-67
2021/10/05 00:09:20;;;;;;;6.93;2.20;;;;;;;;;;696415;28;852;-66
2021/10/05 00:09:40;;;;;;;7.10;2.50;;;;;;;;;;696359;28;835;-67
2021/10/05 00:10:00;;;;;;;6.40;2.37;;;;;;;;;;696414;28;820;-66
2021/10/05 00:10:21;;;;;;;5.37;2.17;;;;;;;;;;696350;28;841;-66
2021/10/05 00:10:41;;;;;;;6.47;2.30;;;;;;;;;;695819;28;1409;-67
2021/10/05 00:11:01;;;;;;;7.00;2.33;;;;;;;;;;693821;28;859;-67
2021/10/05 00:11:21;;;;;;;6.80;2.43;;;;;;;;;;693744;28;970;-67
2021/10/05 00:11:41;;;;;;;5.80;2.47;;;;;;;;;;693747;28;914;-67
2021/10/05 00:12:01;;;;;;;6.77;2.33;;;;;;;;;;693775;28;967;-67
2021/10/05 00:12:23;;;;;;;6.87;2.40;;;;;;;;;;693586;28;1112;-66
2021/10/05 00:12:43;;;;;;;6.15;2.17;;;;;;;;;;693692;28;975;-66
2021/10/05 00:13:03;;;;;;;6.57;2.30;;;;;;;;;;693584;28;1011;-66
2021/10/05 00:13:23;;;;;;;6.50;2.20;;;;;;;;;;693736;28;792;-66
2021/10/05 00:13:44;;;;;;;5.67;2.10;;;;;;;;;;693621;28;915;-66
2021/10/05 00:14:04;;;;;;;6.57;2.27;;;;;;;;;;693598;28;927;-66
2021/10/05 00:14:24;;;;;;;6.50;2.10;;;;;;;;;;693691;28;911;-67
2021/10/05 00:14:45;;;;;;;6.47;2.23;;;;;;;;;;693734;28;888;-66
2021/10/05 00:15:06;;;;;;;5.43;2.10;;;;;;;;;;693500;28;1275;-66
2021/10/05 00:15:29;;;;;;;5.28;2.20;;;;;;;;;;693639;28;1492;-66
2021/10/05 00:15:49;;;;;;;6.03;2.30;;;;;;;;;;693524;28;1408;-66
2021/10/05 00:16:10;;;;;;;7.37;2.20;;;;;;;;;;693563;28;824;-66
2021/10/05 00:16:30;;;;;;;6.03;2.20;;;;;;;;;;693678;28;902;-66
2021/10/05 00:16:50;;;;;;;4.73;2.10;;;;;;;;;;693696;28;887;-66
2021/10/05 00:17:10;;;;;;;4.93;2.20;;;;;;;;;;693591;28;864;-66
2021/10/05 00:17:30;;;;;;;5.23;2.10;;;;;;;;;;693743;28;986;-67
2021/10/05 00:17:51;;;;;;;6.70;2.50;;;;;;;;;;693559;28;851;-67
2021/10/05 00:18:11;;;;;;;7.90;2.60;;;;;;;;;;693564;28;876;-67
2021/10/05 00:18:31;;;;;;;5.90;2.60;;;;;;;;;;693707;28;1111;-67
2021/10/05 00:18:51;;;;;;;5.20;2.23;;;;;;;;;;693619;28;809;-66
2021/10/05 00:19:11;;;;;;;5.00;2.00;;;;;;;;;;693697;28;1389;-66
2021/10/05 00:19:35;;;;;;;5.67;2.30;;;;;;;;;;696417;28;1037;-66
2021/10/05 00:19:55;;;;;;;5.85;2.15;;;;;;;;;;696212;28;1115;-66
2021/10/05 00:20:15;;;;;;;5.87;2.30;;;;;;;;;;696297;28;850;-66
2021/10/05 00:20:35;;;;;;;4.70;2.20;;;;;;;;;;696462;28;832;-66
2021/10/05 00:20:56;;;;;;;5.50;2.23;;;;;;;;;;696326;28;974;-66
2021/10/05 00:21:17;;;;;;;6.68;2.28;;;;;;;;;;696275;28;1373;-66
2021/10/05 00:21:40;;;;;;;6.25;2.20;;;;;;;;;;696369;28;1010;-66
2021/10/05 00:22:00;;;;;;;5.78;2.20;;;;;;;;;;696372;28;864;-66
2021/10/05 00:22:20;;;;;;;7.33;2.40;;;;;;;;;;696289;28;1029;-66
2021/10/05 00:22:41;;;;;;;5.70;2.20;;;;;;;;;;696077;28;935;-66
2021/10/05 00:23:01;;;;;;;6.20;2.40;;;;;;;;;;696297;28;784;-66
2021/10/05 00:23:21;;;;;;;5.37;2.40;;;;;;;;;;696163;28;1023;-66
2021/10/05 00:23:41;;;;;;;6.07;2.13;;;;;;;;;;696074;28;974;-66
2021/10/05 00:24:05;;;;;;;6.68;2.30;;;;;;;;;;696131;28;915;-66
2021/10/05 00:24:25;;;;;;;6.07;2.10;;;;;;;;;;695586;28;1400;-66
2021/10/05 00:24:45;;;;;;;6.30;1.97;;;;;;;;;;693678;28;826;-66
2021/10/05 00:25:06;;;;;;;5.33;2.27;;;;;;;;;;693581;28;1201;-66
2021/10/05 00:25:29;;;;;;;6.00;2.27;;;;;;;;;;693586;28;1315;-67
2021/10/05 00:25:49;;;;;;;5.65;2.00;;;;;;;;;;693955;28;1110;-66
2021/10/05 00:26:09;;;;;;;6.37;2.10;;;;;;;;;;693621;28;828;-66
2021/10/05 00:26:29;;;;;;;5.70;2.30;;;;;;;;;;693539;28;1915;-66
2021/10/05 00:26:49;;;;;;;5.47;2.40;;;;;;;;;;693725;28;974;-66
2021/10/05 00:27:10;;;;;;;5.87;2.10;;;;;;;;;;693695;28;885;-66
2021/10/05 00:27:30;;;;;;;6.50;2.10;;;;;;;;;;693655;28;873;-66
2021/10/05 00:27:50;;;;;;;6.15;2.05;;;;;;;;;;695121;28;1400;-66
2021/10/05 00:28:10;;;;;;;6.23;2.23;;;;;;;;;;696317;28;990;-68
2021/10/05 00:28:30;;;;;;;7.63;2.20;;;;;;;;;;696329;28;940;-66
2021/10/05 00:28:50;;;;;;;5.70;2.10;;;;;;;;;;696476;28;864;-66
2021/10/05 00:29:11;;;;;;;5.03;2.30;;;;;;;;;;696319;28;971;-66
2021/10/05 00:29:31;;;;;;;7.00;2.40;;;;;;;;;;696480;28;766;-66
2021/10/05 00:29:54;;;;;;;5.57;2.30;;;;;;;;;;696302;28;1340;-67
2021/10/05 00:30:14;;;;;;;6.43;2.20;;;;;;;;;;696259;28;844;-67
2021/10/05 00:30:34;;;;;;;5.80;2.20;;;;;;;;;;696299;28;919;-66
2021/10/05 00:30:54;;;;;;;6.10;2.33;;;;;;;;;;696500;28;883;-67
2021/10/05 00:31:14;;;;;;;5.73;2.20;;;;;;;;;;696280;28;1037;-67
2021/10/05 00:31:40;;;;;;;5.55;2.00;;;;;;;;;;696364;28;1263;-67
2021/10/05 00:32:00;;;;;;;7.70;2.58;;;;;;;;;;696300;28;903;-67
2021/10/05 00:32:20;;;;;;;6.13;2.20;;;;;;;;;;696253;28;1254;-67
2021/10/05 00:32:41;;;;;;;5.87;2.10;;;;;;;;;;693508;28;1369;-67
2021/10/05 00:33:02;;;;;;;5.87;2.30;;;;;;;;;;693484;28;824;-67
2021/10/05 00:33:25;;;;;;;5.45;2.20;;;;;;;;;;693501;28;1325;-67
2021/10/05 00:33:45;;;;;;;6.03;2.17;;;;;;;;;;693716;28;1007;-67
2021/10/05 00:34:05;;;;;;;7.00;2.33;;;;;;;;;;695552;28;1496;-67
2021/10/05 00:34:25;;;;;;;6.87;2.40;;;;;;;;;;696345;28;994;-67
2021/10/05 00:34:45;;;;;;;6.17;2.10;;;;;;;;;;694892;28;1381;-67
2021/10/05 00:35:06;;;;;;;7.53;2.30;;;;;;;;;;693542;28;1274;-67
2021/10/05 00:35:26;;;;;;;6.82;2.47;;;;;;;;;;693620;28;778;-66
2021/10/05 00:35:46;;;;;;;6.23;2.70;;;;;;;;;;693627;28;832;-67
2021/10/05 00:36:06;;;;;;;7.10;2.20;;;;;;;;;;693634;28;840;-67
2021/10/05 00:36:27;;;;;;;6.72;2.03;;;;;;;;;;693470;28;1179;-67
2021/10/05 00:36:47;;;;;;;5.47;1.90;;;;;;;;;;693496;28;998;-67
2021/10/05 00:37:07;;;;;;;6.40;2.20;;;;;;;;;;693687;28;975;-66
2021/10/05 00:37:27;;;;;;;6.20;2.20;;;;;;;;;;693552;28;1003;-67
2021/10/05 00:37:47;;;;;;;5.50;2.13;;;;;;;;;;693569;28;904;-67
2021/10/05 00:38:07;;;;;;;5.67;2.07;;;;;;;;;;693610;28;836;-67
2021/10/05 00:38:28;;;;;;;6.40;2.13;;;;;;;;;;693643;28;832;-67
2021/10/05 00:38:48;;;;;;;6.17;2.20;;;;;;;;;;693448;28;1006;-67
2021/10/05 00:39:11;;;;;;;6.45;2.30;;;;;;;;;;693689;28;994;-66
2021/10/05 00:39:31;;;;;;;6.75;2.38;;;;;;;;;;693505;28;1506;-66
2021/10/05 00:39:51;;;;;;;6.00;2.37;;;;;;;;;;696188;28;1412;-66
2021/10/05 00:40:11;;;;;;;4.77;2.30;;;;;;;;;;696265;28;1017;-66
2021/10/05 00:40:31;;;;;;;6.00;2.40;;;;;;;;;;696254;28;935;-66
2021/10/05 00:40:55;;;;;;;5.60;2.20;;;;;;;;;;696005;28;1297;-66
2021/10/05 00:41:15;;;;;;;5.85;2.30;;;;;;;;;;696147;28;1416;-67
2021/10/05 00:41:35;;;;;;;5.37;2.30;;;;;;;;;;693867;28;1419;-67
2021/10/05 00:41:55;;;;;;;5.97;2.30;;;;;;;;;;693679;28;820;-67
2021/10/05 00:42:16;;;;;;;6.53;2.15;;;;;;;;;;693623;28;872;-67
2021/10/05 00:42:39;;;;;;;5.80;2.17;;;;;;;;;;693535;28;1120;-67
2021/10/05 00:42:59;;;;;;;6.13;2.25;;;;;;;;;;693413;28;881;-66
2021/10/05 00:43:19;;;;;;;5.90;2.30;;;;;;;;;;693553;28;798;-66
2021/10/05 00:43:39;;;;;;;7.33;2.30;;;;;;;;;;693645;28;877;-66
2021/10/05 00:44:00;;;;;;;4.70;1.97;;;;;;;;;;693491;28;1054;-65
2021/10/05 00:44:50;;;;;;;6.22;2.22;;;;;;;;;;693430;28;883;-66
2021/10/05 00:45:10;;;;;;;6.45;2.22;;;;;;;;;;692125;28;1916;-66
2021/10/05 00:45:30;;;;;;;6.90;2.25;;;;;;;;;;693648;28;891;-66
2021/10/05 00:45:51;;;;;;;5.87;1.90;;;;;;;;;;693541;28;983;-67
2021/10/05 00:46:11;;;;;;;5.10;2.10;;;;;;;;;;693526;28;974;-67
2021/10/05 00:46:33;;;;;;;5.47;2.13;;;;;;;;;;693463;28;1918;-67
2021/10/05 00:46:53;;;;;;;5.10;1.85;;;;;;;;;;693637;28;838;-67
2021/10/05 00:47:14;;;;;;;6.07;2.07;;;;;;;;;;693515;28;871;-67
2021/10/05 00:47:34;;;;;;;6.22;2.30;;;;;;;;;;695279;28;1451;-67
2021/10/05 00:47:54;;;;;;;5.03;2.13;;;;;;;;;;696176;28;1190;-68
2021/10/05 00:48:14;;;;;;;5.27;2.10;;;;;;;;;;696316;28;999;-67
2021/10/05 00:48:34;;;;;;;5.00;1.90;;;;;;;;;;696276;28;910;-67
2021/10/05 00:48:55;;;;;;;5.10;2.20;;;;;;;;;;696238;28;971;-67
2021/10/05 00:49:15;;;;;;;8.40;2.47;;;;;;;;;;696320;28;906;-67
2021/10/05 00:49:36;;;;;;;7.63;2.30;;;;;;;;;;696428;28;852;-66
2021/10/05 00:49:56;;;;;;;4.57;2.00;;;;;;;;;;696234;28;1007;-66
2021/10/05 00:50:17;;;;;;;5.20;2.10;;;;;;;;;;696299;28;864;-66
2021/10/05 00:50:37;;;;;;;6.03;2.20;;;;;;;;;;696273;28;1032;-66
2021/10/05 00:50:57;;;;;;;6.30;2.20;;;;;;;;;;696277;28;923;-66
2021/10/05 00:51:17;;;;;;;5.63;2.10;;;;;;;;;;696047;28;1246;-65
2021/10/05 00:51:37;;;;;;;5.10;1.90;;;;;;;;;;696322;28;891;-66
2021/10/05 00:51:59;;;;;;;5.10;2.10;;;;;;;;;;696351;28;782;-66
2021/10/05 00:52:22;;;;;;;6.68;2.10;;;;;;;;;;695269;28;1381;-65
2021/10/05 00:52:43;;;;;;;5.30;1.90;;;;;;;;;;695646;28;1615;-67
2021/10/05 00:53:03;;;;;;;5.15;2.10;;;;;;;;;;696162;28;774;-66
2021/10/05 00:53:23;;;;;;;5.43;2.10;;;;;;;;;;696256;28;860;-67
2021/10/05 00:53:47;;;;;;;5.22;2.20;;;;;;;;;;696413;28;876;-67
2021/10/05 00:54:11;;;;;;;5.53;2.10;;;;;;;;;;695220;28;1424;-67
2021/10/05 00:54:32;;;;;;;6.00;2.10;;;;;;;;;;694546;28;1357;-67
2021/10/05 00:54:53;;;;;;;5.82;1.98;;;;;;;;;;696323;28;951;-66
2021/10/05 00:55:13;;;;;;;5.23;2.00;;;;;;;;;;696214;28;1319;-67
2021/10/05 00:55:36;;;;;;;5.50;1.90;;;;;;;;;;696320;28;861;-67
2021/10/05 00:55:56;;;;;;;6.75;2.10;;;;;;;;;;696473;28;967;-67
2021/10/05 00:56:16;;;;;;;5.47;1.90;;;;;;;;;;696135;28;995;-68
2021/10/05 00:56:42;;;;;;;5.17;1.90;;;;;;;;;;696412;28;820;-67
2021/10/05 00:57:03;;;;;;;5.72;2.30;;;;;;;;;;696226;28;971;-67
2021/10/05 00:57:23;;;;;;;5.90;1.95;;;;;;;;;;696072;28;1408;-67
2021/10/05 00:57:43;;;;;;;6.40;1.90;;;;;;;;;;696339;28;779;-67
2021/10/05 00:58:04;;;;;;;6.33;2.10;;;;;;;;;;696417;28;828;-67
2021/10/05 00:58:24;;;;;;;5.88;2.10;;;;;;;;;;696399;28;1011;-67
2021/10/05 00:58:44;;;;;;;6.33;2.00;;;;;;;;;;696453;28;831;-67
2021/10/05 00:59:04;;;;;;;6.37;2.10;;;;;;;;;;696332;28;1061;-67
2021/10/05 00:59:25;;;;;;;5.90;2.10;;;;;;;;;;696491;28;961;-67
2021/10/05 00:59:45;;;;;;;5.67;2.30;;;;;;;;;;696226;28;842;-67
2021/10/05 01:00:06;;;;;;;6.20;2.17;;;;;;;;;;696474;28;828;-66
2021/10/05 01:00:29;;;;;;;5.47;1.90;;;;;;;;;;696206;28;1287;-67
2021/10/05 01:00:49;;;;;;;4.57;1.80;;;;;;;;;;696481;28;919;-67
2021/10/05 01:01:09;;;;;;;5.73;2.07;;;;;;;;;;696468;28;856;-68
2021/10/05 01:01:29;;;;;;;5.67;2.03;;;;;;;;;;696449;28;817;-67
2021/10/05 01:01:50;;;;;;;6.13;2.17;;;;;;;;;;696245;28;998;-67
2021/10/05 01:02:11;;;;;;;5.10;2.00;;;;;;;;;;696359;28;923;-67
2021/10/05 01:02:31;;;;;;;4.90;2.10;;;;;;;;;;696182;28;879;-67
2021/10/05 01:02:52;;;;;;;5.70;2.20;;;;;;;;;;695882;28;951;-66
2021/10/05 01:03:12;;;;;;;5.03;1.93;;;;;;;;;;696393;28;810;-67
2021/10/05 01:03:33;;;;;;;4.90;2.00;;;;;;;;;;696183;28;917;-67
2021/10/05 01:03:53;;;;;;;5.20;2.00;;;;;;;;;;696290;28;995;-67
2021/10/05 01:04:13;;;;;;;4.20;1.98;;;;;;;;;;696234;28;828;-67
2021/10/05 01:04:34;;;;;;;5.20;1.90;;;;;;;;;;696054;28;1400;-67
2021/10/05 01:04:54;;;;;;;6.43;2.20;;;;;;;;;;693870;28;1420;-67
2021/10/05 01:05:14;;;;;;;5.40;2.10;;;;;;;;;;693525;28;1271;-69
2021/10/05 01:05:34;;;;;;;5.93;2.10;;;;;;;;;;693541;28;978;-67
2021/10/05 01:05:54;;;;;;;4.23;1.87;;;;;;;;;;693466;28;1306;-67
2021/10/05 01:06:18;;;;;;;4.65;1.90;;;;;;;;;;693488;28;891;-67
2021/10/05 01:06:45;;;;;;;4.75;1.85;;;;;;;;;;693436;28;2002;-66
2021/10/05 01:07:07;;;;;;;5.03;1.90;;;;;;;;;;693470;28;1030;-66
2021/10/05 01:07:28;;;;;;;5.53;2.30;;;;;;;;;;693676;28;896;-67
2021/10/05 01:07:48;;;;;;;5.33;2.13;;;;;;;;;;693665;28;813;-66
2021/10/05 01:08:08;;;;;;;5.88;2.10;;;;;;;;;;693471;28;872;-66
2021/10/05 01:08:30;;;;;;;5.37;2.10;;;;;;;;;;693618;28;769;-66
2021/10/05 01:08:51;;;;;;;5.50;1.90;;;;;;;;;;694526;28;1400;-67
2021/10/05 01:09:11;;;;;;;4.35;2.00;;;;;;;;;;695805;28;1439;-66
2021/10/05 01:09:32;;;;;;;5.03;1.93;;;;;;;;;;693886;28;1389;-66
2021/10/05 01:09:53;;;;;;;4.60;1.90;;;;;;;;;;693093;28;1886;-66
2021/10/05 01:10:17;;;;;;;4.65;1.90;;;;;;;;;;693256;28;956;-66
2021/10/05 01:10:37;;;;;;;5.95;2.15;;;;;;;;;;693311;28;1023;-66
2021/10/05 01:10:58;;;;;;;5.10;2.07;;;;;;;;;;693250;28;1428;-67
2021/10/05 01:11:18;;;;;;;4.50;2.05;;;;;;;;;;693364;28;951;-66
2021/10/05 01:11:38;;;;;;;5.57;1.90;;;;;;;;;;693346;28;928;-67
2021/10/05 01:11:58;;;;;;;5.57;2.07;;;;;;;;;;693638;28;1408;-67
2021/10/05 01:12:18;;;;;;;5.37;2.20;;;;;;;;;;693556;28;805;-67
2021/10/05 01:12:38;;;;;;;5.37;2.00;;;;;;;;;;693256;28;1321;-67
2021/10/05 01:12:59;;;;;;;6.30;1.90;;;;;;;;;;693307;28;945;-67
2021/10/05 01:13:19;;;;;;;7.17;1.90;;;;;;;;;;693638;28;987;-67
2021/10/05 01:13:39;;;;;;;5.77;1.90;;;;;;;;;;693560;28;789;-67
2021/10/05 01:13:59;;;;;;;4.67;1.90;;;;;;;;;;693550;28;829;-66
2021/10/05 01:14:19;;;;;;;6.20;2.00;;;;;;;;;;693441;28;908;-67
2021/10/05 01:14:40;;;;;;;6.88;2.22;;;;;;;;;;693570;28;939;-67
2021/10/05 01:15:00;;;;;;;5.43;2.20;;;;;;;;;;693484;28;1354;-67
2021/10/05 01:15:22;;;;;;;6.87;2.10;;;;;;;;;;693585;28;832;-67
2021/10/05 01:15:42;;;;;;;4.30;1.75;;;;;;;;;;694727;28;1463;-66
2021/10/05 01:16:03;;;;;;;6.03;1.87;;;;;;;;;;696276;28;919;-67
2021/10/05 01:16:23;;;;;;;5.57;2.00;;;;;;;;;;696146;28;928;-66
2021/10/05 01:16:43;;;;;;;5.80;2.00;;;;;;;;;;696103;28;1211;-67
2021/10/05 01:17:04;;;;;;;7.03;2.00;;;;;;;;;;696304;28;858;-66
2021/10/05 01:17:24;;;;;;;6.03;1.90;;;;;;;;;;696337;28;839;-66
2021/10/05 01:17:45;;;;;;;5.37;1.90;;;;;;;;;;696391;28;810;-66
2021/10/05 01:18:05;;;;;;;6.28;2.10;;;;;;;;;;696222;28;889;-66
2021/10/05 01:18:25;;;;;;;5.67;1.97;;;;;;;;;;696292;28;824;-66
2021/10/05 01:18:49;;;;;;;5.40;1.90;;;;;;;;;;696256;28;1049;-65
2021/10/05 01:19:09;;;;;;;6.28;1.80;;;;;;;;;;696227;28;873;-66
2021/10/05 01:19:29;;;;;;;5.53;2.00;;;;;;;;;;696388;28;852;-66
2021/10/05 01:19:49;;;;;;;5.53;2.00;;;;;;;;;;696300;28;928;-66
2021/10/05 01:20:13;;;;;;;5.53;1.90;;;;;;;;;;696314;28;930;-67
2021/10/05 01:20:52;;;;;;;5.85;2.03;;;;;;;;;;696271;28;856;-66
2021/10/05 01:21:15;;;;;;;5.82;2.00;;;;;;;;;;693516;28;868;-67
2021/10/05 01:21:35;;;;;;;6.07;2.10;;;;;;;;;;693674;28;962;-67
2021/10/05 01:21:56;;;;;;;4.03;1.83;;;;;;;;;;693404;28;1318;-67
2021/10/05 01:22:16;;;;;;;5.13;1.80;;;;;;;;;;693633;28;872;-66
2021/10/05 01:22:37;;;;;;;6.77;2.07;;;;;;;;;;693353;28;1405;-66
2021/10/05 01:22:57;;;;;;;4.70;1.88;;;;;;;;;;693288;28;947;-66
2021/10/05 01:23:17;;;;;;;5.70;1.80;;;;;;;;;;693641;28;813;-66
2021/10/05 01:23:38;;;;;;;6.10;1.90;;;;;;;;;;695556;28;1412;-67
2021/10/05 01:24:08;;;;;;;5.18;1.80;;;;;;;;;;696391;28;912;-65
2021/10/05 01:24:28;;;;;;;5.28;1.90;;;;;;;;;;695352;28;1419;-67
2021/10/05 01:24:48;;;;;;;4.10;1.90;;;;;;;;;;693066;28;1291;-66
2021/10/05 01:25:11;;;;;;;4.50;2.00;;;;;;;;;;693295;28;1306;-67
2021/10/05 01:25:31;;;;;;;6.20;1.90;;;;;;;;;;693318;28;1030;-67
2021/10/05 01:25:52;;;;;;;5.57;1.90;;;;;;;;;;693527;28;864;-67
2021/10/05 01:26:12;;;;;;;5.90;2.10;;;;;;;;;;693240;28;991;-67
2021/10/05 01:26:32;;;;;;;6.60;2.10;;;;;;;;;;693332;28;1910;-67
2021/10/05 01:26:53;;;;;;;5.07;1.90;;;;;;;;;;693477;28;919;-67
2021/10/05 01:27:13;;;;;;;5.25;2.00;;;;;;;;;;693497;28;852;-67
2021/10/05 01:27:47;;;;;;;6.33;2.00;;;;;;;;;;693626;28;805;-66
2021/10/05 01:28:07;;;;;;;5.78;1.98;;;;;;;;;;693563;28;877;-66
2021/10/05 01:28:27;;;;;;;5.45;1.80;;;;;;;;;;693603;28;923;-65
2021/10/05 01:28:48;;;;;;;3.93;1.70;;;;;;;;;;693333;28;1381;-66
2021/10/05 01:29:09;;;;;;;5.40;1.80;;;;;;;;;;693523;28;813;-67
2021/10/05 01:29:31;;;;;;;5.03;1.80;;;;;;;;;;693554;28;1023;-66
2021/10/05 01:29:51;;;;;;;4.78;1.83;;;;;;;;;;693510;28;1023;-66
2021/10/05 01:30:12;;;;;;;6.27;2.00;;;;;;;;;;693534;28;793;-66
2021/10/05 01:30:32;;;;;;;5.95;1.80;;;;;;;;;;693492;28;903;-66
2021/10/05 01:30:52;;;;;;;5.00;1.80;;;;;;;;;;693418;28;943;-65
2021/10/05 01:31:12;;;;;;;5.20;2.00;;;;;;;;;;693563;28;988;-66
2021/10/05 01:31:36;;;;;;;4.97;1.93;;;;;;;;;;693616;28;868;-66
2021/10/05 01:31:58;;;;;;;5.55;1.90;;;;;;;;;;693361;28;1767;-66
2021/10/05 01:32:21;;;;;;;5.78;1.80;;;;;;;;;;693622;28;876;-66
2021/10/05 01:32:41;;;;;;;6.10;1.75;;;;;;;;;;693126;28;1046;-66
2021/10/05 01:33:01;;;;;;;4.32;1.73;;;;;;;;;;693333;28;793;-67
2021/10/05 01:33:23;;;;;;;5.20;1.93;;;;;;;;;;693582;28;898;-67
2021/10/05 01:33:43;;;;;;;4.95;1.92;;;;;;;;;;693534;28;1006;-66
2021/10/05 01:34:03;;;;;;;5.37;2.07;;;;;;;;;;693510;28;990;-66
2021/10/05 01:34:24;;;;;;;6.03;2.00;;;;;;;;;;693499;28;986;-67
2021/10/05 01:34:44;;;;;;;5.40;1.80;;;;;;;;;;694201;28;1322;-66
2021/10/05 01:35:05;;;;;;;4.20;1.80;;;;;;;;;;696386;28;1240;-66
2021/10/05 01:35:25;;;;;;;4.50;1.80;;;;;;;;;;696636;28;1396;-66
2021/10/05 01:35:45;;;;;;;4.50;1.67;;;;;;;;;;696884;28;840;-67
2021/10/05 01:36:05;;;;;;;6.07;1.87;;;;;;;;;;696894;28;986;-67
2021/10/05 01:36:25;;;;;;;5.77;1.80;;;;;;;;;;696824;28;919;-66
2021/10/05 01:36:46;;;;;;;5.67;1.87;;;;;;;;;;696794;28;899;-66
2021/10/05 01:37:06;;;;;;;5.97;1.75;;;;;;;;;;696695;28;1002;-66
2021/10/05 01:37:26;;;;;;;5.17;1.50;;;;;;;;;;696810;28;982;-67
2021/10/05 01:37:47;;;;;;;4.25;1.88;;;;;;;;;;696843;28;839;-67
2021/10/05 01:38:08;;;;;;;6.43;2.10;;;;;;;;;;695682;28;1400;-66
2021/10/05 01:38:28;;;;;;;6.47;1.70;;;;;;;;;;694151;28;860;-66
2021/10/05 01:38:48;;;;;;;4.80;1.60;;;;;;;;;;694047;28;1082;-66
2021/10/05 01:39:19;;;;;;;4.70;1.70;;;;;;;;;;693900;28;978;-66
2021/10/05 01:39:39;;;;;;;3.75;1.85;;;;;;;;;;694093;28;856;-66
2021/10/05 01:40:00;;;;;;;4.40;1.77;;;;;;;;;;693937;28;1371;-66
2021/10/05 01:40:20;;;;;;;4.47;1.60;;;;;;;;;;694083;28;1022;-66
2021/10/05 01:40:40;;;;;;;4.88;1.85;;;;;;;;;;694006;28;834;-66
2021/10/05 01:41:00;;;;;;;5.37;1.90;;;;;;;;;;693955;28;847;-66
2021/10/05 01:41:21;;;;;;;6.17;1.90;;;;;;;;;;694030;28;912;-66
2021/10/05 01:41:41;;;;;;;5.40;1.80;;;;;;;;;;694048;28;1058;-66
2021/10/05 01:42:06;;;;;;;5.87;2.03;;;;;;;;;;694024;28;887;-66
2021/10/05 01:42:26;;;;;;;4.72;1.77;;;;;;;;;;694138;28;911;-66
2021/10/05 01:42:46;;;;;;;5.17;1.80;;;;;;;;;;693582;28;1258;-67
2021/10/05 01:43:06;;;;;;;5.60;1.93;;;;;;;;;;694908;28;1400;-66
2021/10/05 01:43:27;;;;;;;5.37;1.80;;;;;;;;;;694062;28;871;-66
2021/10/05 01:43:47;;;;;;;5.70;1.90;;;;;;;;;;694070;28;1428;-66
2021/10/05 01:44:07;;;;;;;5.73;2.00;;;;;;;;;;696751;28;939;-66
2021/10/05 01:44:28;;;;;;;5.40;1.93;;;;;;;;;;696801;28;863;-66
2021/10/05 01:44:48;;;;;;;4.88;1.73;;;;;;;;;;696756;28;966;-66
2021/10/05 01:45:11;;;;;;;5.80;1.73;;;;;;;;;;696606;28;1344;-66
2021/10/05 01:45:31;;;;;;;5.60;1.90;;;;;;;;;;696748;28;879;-67
2021/10/05 01:45:52;;;;;;;4.47;1.93;;;;;;;;;;696872;28;859;-66
2021/10/05 01:46:13;;;;;;;5.85;1.90;;;;;;;;;;696821;28;863;-66
2021/10/05 01:46:33;;;;;;;6.60;1.70;;;;;;;;;;696184;28;1981;-67
2021/10/05 01:46:54;;;;;;;5.30;1.60;;;;;;;;;;694043;28;837;-67
2021/10/05 01:47:14;;;;;;;6.50;1.97;;;;;;;;;;694021;28;970;-67
2021/10/05 01:47:34;;;;;;;5.90;1.93;;;;;;;;;;693938;28;930;-66
2021/10/05 01:47:54;;;;;;;5.20;1.92;;;;;;;;;;694045;28;970;-66
2021/10/05 01:48:15;;;;;;;4.67;1.80;;;;;;;;;;694001;28;880;-66
2021/10/05 01:48:35;;;;;;;4.95;1.70;;;;;;;;;;694065;28;1046;-66
2021/10/05 01:48:56;;;;;;;4.67;1.80;;;;;;;;;;693984;28;926;-67
2021/10/05 01:49:17;;;;;;;6.17;1.80;;;;;;;;;;694012;28;923;-66
2021/10/05 01:49:38;;;;;;;5.65;1.80;;;;;;;;;;694071;28;914;-66
2021/10/05 01:49:58;;;;;;;4.97;1.80;;;;;;;;;;694044;28;1018;-66
2021/10/05 01:50:18;;;;;;;3.40;1.47;;;;;;;;;;693977;28;982;-66
2021/10/05 01:50:39;;;;;;;4.30;1.70;;;;;;;;;;694082;28;857;-66
2021/10/05 01:50:59;;;;;;;5.28;1.77;;;;;;;;;;693810;28;984;-66
2021/10/05 01:51:19;;;;;;;5.33;1.80;;;;;;;;;;694130;28;856;-66
2021/10/05 01:51:39;;;;;;;5.07;1.67;;;;;;;;;;694016;28;990;-66
2021/10/05 01:51:59;;;;;;;5.70;1.73;;;;;;;;;;693997;28;863;-67
2021/10/05 01:52:19;;;;;;;4.53;1.70;;;;;;;;;;694078;28;901;-67
2021/10/05 01:52:40;;;;;;;4.67;1.90;;;;;;;;;;695125;28;1456;-66
2021/10/05 01:53:00;;;;;;;4.17;1.90;;;;;;;;;;695014;28;1388;-67
2021/10/05 01:53:20;;;;;;;5.10;2.00;;;;;;;;;;696838;28;997;-67
2021/10/05 01:53:41;;;;;;;5.33;1.70;;;;;;;;;;696821;28;886;-67
2021/10/05 01:54:01;;;;;;;5.97;1.80;;;;;;;;;;696635;28;816;-67
2021/10/05 01:54:21;;;;;;;7.30;1.77;;;;;;;;;;696610;28;1440;-67
2021/10/05 01:54:41;;;;;;;5.47;1.70;;;;;;;;;;696261;28;1373;-67
2021/10/05 01:55:03;;;;;;;4.83;1.80;;;;;;;;;;696708;28;1401;-67
2021/10/05 01:55:23;;;;;;;6.80;1.90;;;;;;;;;;696708;28;1034;-67
2021/10/05 01:55:43;;;;;;;4.80;1.70;;;;;;;;;;696771;28;990;-67
2021/10/05 01:56:04;;;;;;;5.43;1.60;;;;;;;;;;696774;28;873;-66
2021/10/05 01:56:24;;;;;;;4.05;1.60;;;;;;;;;;696693;28;919;-67
2021/10/05 01:56:44;;;;;;;4.30;1.63;;;;;;;;;;696742;28;829;-67
2021/10/05 01:57:05;;;;;;;4.70;1.60;;;;;;;;;;696790;28;880;-67
2021/10/05 01:57:25;;;;;;;4.83;1.63;;;;;;;;;;696680;28;983;-67
2021/10/05 01:57:48;;;;;;;5.47;1.80;;;;;;;;;;696681;28;1190;-67
2021/10/05 01:58:08;;;;;;;7.60;1.90;;;;;;;;;;696774;28;937;-67
2021/10/05 01:58:28;;;;;;;5.00;1.90;;;;;;;;;;696621;28;946;-67
2021/10/05 01:58:48;;;;;;;5.20;1.83;;;;;;;;;;696846;28;875;-67
2021/10/05 01:59:08;;;;;;;4.87;1.80;;;;;;;;;;696827;28;955;-67
2021/10/05 01:59:29;;;;;;;4.32;1.80;;;;;;;;;;696694;28;910;-67
2021/10/05 01:59:49;;;;;;;5.80;1.83;;;;;;;;;;696850;28;919;-67
2021/10/05 02:00:09;;;;;;;6.50;1.90;;;;;;;;;;696384;28;1396;-67
2021/10/05 02:00:29;;;;;;;5.15;2.08;;;;;;;;;;694258;28;1408;-67
2021/10/05 02:00:50;;;;;;;4.37;1.93;;;;;;;;;;694038;28;853;-67
2021/10/05 02:01:13;;;;;;;4.03;1.70;;;;;;;;;;693863;28;936;-67
2021/10/05 02:01:34;;;;;;;5.63;1.90;;;;;;;;;;693993;28;902;-67
2021/10/05 02:01:54;;;;;;;7.13;1.92;;;;;;;;;;694029;28;983;-67
2021/10/05 02:02:14;;;;;;;6.80;1.80;;;;;;;;;;693958;28;767;-67
2021/10/05 02:02:34;;;;;;;5.03;1.80;;;;;;;;;;693917;28;883;-67
2021/10/05 02:02:54;;;;;;;4.50;1.80;;;;;;;;;;693478;28;856;-66
2021/10/05 02:03:15;;;;;;;5.03;1.80;;;;;;;;;;694020;28;868;-67
2021/10/05 02:03:35;;;;;;;4.83;1.80;;;;;;;;;;694007;28;994;-67
2021/10/05 02:03:55;;;;;;;5.20;1.60;;;;;;;;;;694006;28;993;-67
2021/10/05 02:04:18;;;;;;;6.15;1.80;;;;;;;;;;694044;28;1118;-66
2021/10/05 02:04:40;;;;;;;5.63;1.70;;;;;;;;;;694005;28;1408;-67
2021/10/05 02:05:00;;;;;;;5.38;1.40;;;;;;;;;;693870;28;1392;-67
2021/10/05 02:05:20;;;;;;;5.82;1.63;;;;;;;;;;693765;28;971;-66
2021/10/05 02:05:41;;;;;;;5.67;1.80;;;;;;;;;;693766;28;822;-67
2021/10/05 02:06:01;;;;;;;5.05;1.77;;;;;;;;;;693856;28;944;-67
2021/10/05 02:06:22;;;;;;;6.03;1.90;;;;;;;;;;693849;28;977;-67
2021/10/05 02:06:42;;;;;;;5.10;1.70;;;;;;;;;;693587;28;1973;-67
2021/10/05 02:07:03;;;;;;;4.43;1.60;;;;;;;;;;693821;28;832;-67
2021/10/05 02:07:23;;;;;;;4.20;1.60;;;;;;;;;;694256;28;1456;-67
2021/10/05 02:07:43;;;;;;;5.03;1.70;;;;;;;;;;696672;28;868;-67
2021/10/05 02:08:06;;;;;;;4.87;1.80;;;;;;;;;;696795;28;926;-67
2021/10/05 02:08:26;;;;;;;4.55;1.70;;;;;;;;;;696692;28;947;-67
2021/10/05 02:08:47;;;;;;;3.88;1.70;;;;;;;;;;696643;28;1085;-67
2021/10/05 02:09:08;;;;;;;4.50;1.70;;;;;;;;;;696739;28;855;-66
2021/10/05 02:09:28;;;;;;;5.07;1.50;;;;;;;;;;696681;28;1014;-66
2021/10/05 02:09:48;;;;;;;5.50;1.50;;;;;;;;;;696853;28;918;-66
2021/10/05 02:10:09;;;;;;;4.65;1.65;;;;;;;;;;696827;28;780;-66
2021/10/05 02:10:29;;;;;;;5.93;1.70;;;;;;;;;;696641;28;1092;-66